createdAt,value
2022-10-08T05:25:08.502Z,55.10
2022-10-08T05:35:09.884Z,52.70
2022-10-08T05:45:11.252Z,50.00
2022-10-08T05:55:12.635Z,48.80
2022-10-08T06:05:14.007Z,48.10
2022-10-08T06:15:15.377Z,47.40
2022-10-08T06:25:16.757Z,47.30
2022-10-08T06:35:18.129Z,47.10
2022-10-08T06:45:19.504Z,47.50
2022-10-08T06:55:20.887Z,47.60
2022-10-08T07:05:22.257Z,47.30
2022-10-08T07:15:23.635Z,47.50
2022-10-08T07:25:25.006Z,46.90
2022-10-08T07:35:26.647Z,47.10
2022-10-08T07:45:28.068Z,47.50
2022-10-08T07:55:29.495Z,47.50
2022-10-08T08:05:30.870Z,47.40
2022-10-08T08:15:32.256Z,46.70
2022-10-08T08:25:33.631Z,46.50
2022-10-08T08:35:35.004Z,46.70
2022-10-08T08:45:51.875Z,47.10
2022-10-08T08:55:53.340Z,46.30
2022-10-08T09:05:54.703Z,46.00
2022-10-08T09:15:56.084Z,46.00
2022-10-08T09:25:57.470Z,45.50
2022-10-08T09:35:58.840Z,45.70
2022-10-08T09:46:00.276Z,45.30
2022-10-08T09:56:01.701Z,45.10
2022-10-08T10:06:03.071Z,45.50
2022-10-08T10:16:04.438Z,45.40
2022-10-08T10:26:06.899Z,45.40
2022-10-08T10:36:08.390Z,45.50
2022-10-08T10:46:09.807Z,45.40
2022-10-08T10:56:11.235Z,45.60
2022-10-08T11:06:12.614Z,45.30
2022-10-08T11:16:14.070Z,45.10
2022-10-08T11:26:22.393Z,44.80
2022-10-08T11:36:25.183Z,46.00
2022-10-08T11:46:28.661Z,45.70
2022-10-08T11:56:30.280Z,48.40
2022-10-08T12:06:31.669Z,47.40
2022-10-08T12:16:33.109Z,48.00
2022-10-08T12:26:34.535Z,47.50
2022-10-08T12:36:35.920Z,46.30
2022-10-08T12:46:37.385Z,45.80
2022-10-08T12:56:38.818Z,45.90
2022-10-08T13:06:40.230Z,45.60
2022-10-08T13:16:41.616Z,45.90
2022-10-08T13:26:43.072Z,45.00
2022-10-08T13:36:44.487Z,45.00
2022-10-08T13:46:45.931Z,44.80
2022-10-08T13:56:47.360Z,44.40
2022-10-08T14:06:48.784Z,45.10
2022-10-08T14:16:50.195Z,44.10
2022-10-08T14:26:51.615Z,44.40
2022-10-08T14:36:53.026Z,44.30
2022-10-08T14:46:54.489Z,43.70
2022-10-08T14:56:55.915Z,44.10
2022-10-08T15:06:57.358Z,43.80
2022-10-08T15:16:58.792Z,43.90
2022-10-08T15:27:00.241Z,43.70
2022-10-08T15:37:01.638Z,43.40
2022-10-08T15:47:03.066Z,43.20
2022-10-08T15:57:04.470Z,43.20
2022-10-08T16:07:05.871Z,43.70
2022-10-08T16:17:07.316Z,43.60
2022-10-08T16:27:08.791Z,43.80
2022-10-08T16:37:10.238Z,43.40
2022-10-08T16:47:11.659Z,43.30
2022-10-08T16:57:13.077Z,43.60
2022-10-08T17:07:14.493Z,42.70
